sensor_id;sensor_type;location;lat;lon;timestamp;P1;durP1;ratioP1;P2;durP2;ratioP2
36691;SDS011;22678;52.052;4.242;2023-06-26T00:01:14;8.68;;;3.63;;
36691;SDS011;22678;52.052;4.242;2023-06-26T00:03:40;9.68;;;3.47;;
36691;SDS011;22678;52.052;4.242;2023-06-26T00:06:05;7.28;;;2.47;;
36691;SDS011;22678;52.052;4.242;2023-06-26T00:08:30;10.23;;;2.90;;
36691;SDS011;22678;52.052;4.242;2023-06-26T00:10:56;5.93;;;2.28;;
36691;SDS011;22678;52.052;4.242;2023-06-26T00:13:22;12.32;;;3.15;;
36691;SDS011;22678;52.052;4.242;2023-06-26T00:15:48;10.13;;;3.13;;
36691;SDS011;22678;52.052;4.242;2023-06-26T00:18:15;5.82;;;3.03;;
36691;SDS011;22678;52.052;4.242;2023-06-26T00:20:40;9.02;;;2.20;;
36691;SDS011;22678;52.052;4.242;2023-06-26T00:23:05;11.77;;;3.70;;
36691;SDS011;22678;52.052;4.242;2023-06-26T00:25:32;14.05;;;2.70;;
36691;SDS011;22678;52.052;4.242;2023-06-26T00:27:58;10.10;;;3.28;;
36691;SDS011;22678;52.052;4.242;2023-06-26T00:30:23;6.70;;;1.77;;
36691;SDS011;22678;52.052;4.242;2023-06-26T00:32:49;8.23;;;1.75;;
36691;SDS011;22678;52.052;4.242;2023-06-26T00:35:14;8.18;;;2.53;;
36691;SDS011;22678;52.052;4.242;2023-06-26T00:37:40;9.65;;;2.58;;
36691;SDS011;22678;52.052;4.242;2023-06-26T00:40:05;10.57;;;2.55;;
36691;SDS011;22678;52.052;4.242;2023-06-26T00:42:31;10.20;;;2.13;;
36691;SDS011;22678;52.052;4.242;2023-06-26T00:44:56;7.38;;;2.60;;
36691;SDS011;22678;52.052;4.242;2023-06-26T00:47:22;9.13;;;2.63;;
36691;SDS011;22678;52.052;4.242;2023-06-26T00:49:48;9.00;;;3.22;;
36691;SDS011;22678;52.052;4.242;2023-06-26T00:52:14;10.43;;;2.40;;
36691;SDS011;22678;52.052;4.242;2023-06-26T00:54:39;10.20;;;3.08;;
36691;SDS011;22678;52.052;4.242;2023-06-26T00:57:05;14.07;;;2.15;;
36691;SDS011;22678;52.052;4.242;2023-06-26T00:59:30;9.30;;;3.65;;
36691;SDS011;22678;52.052;4.242;2023-06-26T01:01:55;7.57;;;2.25;;
36691;SDS011;22678;52.052;4.242;2023-06-26T01:04:21;15.02;;;3.65;;
36691;SDS011;22678;52.052;4.242;2023-06-26T01:06:46;11.32;;;2.55;;
36691;SDS011;22678;52.052;4.242;2023-06-26T01:09:20;9.77;;;4.22;;
36691;SDS011;22678;52.052;4.242;2023-06-26T01:11:47;10.40;;;2.50;;
36691;SDS011;22678;52.052;4.242;2023-06-26T01:14:13;12.57;;;2.78;;
36691;SDS011;22678;52.052;4.242;2023-06-26T01:16:39;8.20;;;3.10;;
36691;SDS011;22678;52.052;4.242;2023-06-26T01:19:09;15.13;;;4.18;;
36691;SDS011;22678;52.052;4.242;2023-06-26T01:21:40;14.32;;;4.32;;
36691;SDS011;22678;52.052;4.242;2023-06-26T01:24:09;12.02;;;3.55;;
36691;SDS011;22678;52.052;4.242;2023-06-26T01:26:45;9.85;;;3.33;;
36691;SDS011;22678;52.052;4.242;2023-06-26T01:29:13;13.55;;;3.30;;
36691;SDS011;22678;52.052;4.242;2023-06-26T01:31:42;8.90;;;3.88;;
36691;SDS011;22678;52.052;4.242;2023-06-26T01:34:09;20.60;;;4.18;;
36691;SDS011;22678;52.052;4.242;2023-06-26T01:36:35;14.68;;;3.47;;
36691;SDS011;22678;52.052;4.242;2023-06-26T01:39:02;17.35;;;3.28;;
36691;SDS011;22678;52.052;4.242;2023-06-26T01:41:27;15.48;;;3.38;;
36691;SDS011;22678;52.052;4.242;2023-06-26T01:46:39;9.15;;;3.13;;
36691;SDS011;22678;52.052;4.242;2023-06-26T01:49:18;15.38;;;3.03;;
36691;SDS011;22678;52.052;4.242;2023-06-26T01:51:47;11.05;;;3.95;;
36691;SDS011;22678;52.052;4.242;2023-06-26T01:54:19;15.30;;;3.50;;
36691;SDS011;22678;52.052;4.242;2023-06-26T01:56:49;13.50;;;3.17;;
36691;SDS011;22678;52.052;4.242;2023-06-26T01:59:17;11.35;;;3.47;;
36691;SDS011;22678;52.052;4.242;2023-06-26T02:01:46;10.40;;;3.05;;
36691;SDS011;22678;52.052;4.242;2023-06-26T02:04:12;11.48;;;5.35;;
36691;SDS011;22678;52.052;4.242;2023-06-26T02:06:37;23.23;;;5.63;;
36691;SDS011;22678;52.052;4.242;2023-06-26T02:09:02;15.13;;;3.00;;
36691;SDS011;22678;52.052;4.242;2023-06-26T02:11:28;13.40;;;3.33;;
36691;SDS011;22678;52.052;4.242;2023-06-26T02:13:54;16.85;;;5.05;;
36691;SDS011;22678;52.052;4.242;2023-06-26T02:16:19;16.27;;;4.32;;
36691;SDS011;22678;52.052;4.242;2023-06-26T02:18:44;11.68;;;4.25;;
36691;SDS011;22678;52.052;4.242;2023-06-26T02:21:10;16.88;;;6.10;;
36691;SDS011;22678;52.052;4.242;2023-06-26T02:23:35;21.85;;;4.72;;
36691;SDS011;22678;52.052;4.242;2023-06-26T02:26:01;15.75;;;4.18;;
36691;SDS011;22678;52.052;4.242;2023-06-26T02:28:26;18.38;;;5.13;;
36691;SDS011;22678;52.052;4.242;2023-06-26T02:30:51;13.80;;;4.70;;
36691;SDS011;22678;52.052;4.242;2023-06-26T02:33:17;19.48;;;4.03;;
36691;SDS011;22678;52.052;4.242;2023-06-26T02:35:42;14.75;;;3.17;;
36691;SDS011;22678;52.052;4.242;2023-06-26T02:38:08;15.77;;;4.10;;
36691;SDS011;22678;52.052;4.242;2023-06-26T02:40:33;16.00;;;5.88;;
36691;SDS011;22678;52.052;4.242;2023-06-26T02:42:58;15.75;;;4.70;;
36691;SDS011;22678;52.052;4.242;2023-06-26T02:45:24;16.48;;;3.35;;
36691;SDS011;22678;52.052;4.242;2023-06-26T02:47:49;20.20;;;4.57;;
36691;SDS011;22678;52.052;4.242;2023-06-26T02:50:14;15.95;;;5.07;;
36691;SDS011;22678;52.052;4.242;2023-06-26T02:52:40;12.32;;;4.45;;
36691;SDS011;22678;52.052;4.242;2023-06-26T02:55:05;18.13;;;4.07;;
36691;SDS011;22678;52.052;4.242;2023-06-26T02:57:31;15.60;;;3.67;;
36691;SDS011;22678;52.052;4.242;2023-06-26T02:59:56;20.90;;;5.35;;
36691;SDS011;22678;52.052;4.242;2023-06-26T03:02:21;17.17;;;5.40;;
36691;SDS011;22678;52.052;4.242;2023-06-26T03:04:47;11.40;;;3.95;;
36691;SDS011;22678;52.052;4.242;2023-06-26T03:07:12;21.77;;;4.78;;
36691;SDS011;22678;52.052;4.242;2023-06-26T03:09:38;14.00;;;3.90;;
36691;SDS011;22678;52.052;4.242;2023-06-26T03:12:03;13.02;;;3.08;;
36691;SDS011;22678;52.052;4.242;2023-06-26T03:14:29;11.60;;;3.65;;
36691;SDS011;22678;52.052;4.242;2023-06-26T03:16:56;16.42;;;5.90;;
36691;SDS011;22678;52.052;4.242;2023-06-26T03:19:24;18.02;;;4.32;;
36691;SDS011;22678;52.052;4.242;2023-06-26T03:21:49;19.30;;;4.63;;
36691;SDS011;22678;52.052;4.242;2023-06-26T03:24:15;22.55;;;5.28;;
36691;SDS011;22678;52.052;4.242;2023-06-26T03:26:40;13.55;;;3.25;;
36691;SDS011;22678;52.052;4.242;2023-06-26T03:29:05;20.23;;;3.75;;
36691;SDS011;22678;52.052;4.242;2023-06-26T03:31:31;15.57;;;4.00;;
36691;SDS011;22678;52.052;4.242;2023-06-26T03:33:56;12.07;;;4.22;;
36691;SDS011;22678;52.052;4.242;2023-06-26T03:36:21;15.02;;;2.55;;
36691;SDS011;22678;52.052;4.242;2023-06-26T03:38:47;12.02;;;3.20;;
36691;SDS011;22678;52.052;4.242;2023-06-26T03:41:12;10.85;;;2.95;;
36691;SDS011;22678;52.052;4.242;2023-06-26T03:43:38;15.05;;;2.65;;
36691;SDS011;22678;52.052;4.242;2023-06-26T03:46:03;15.32;;;2.90;;
36691;SDS011;22678;52.052;4.242;2023-06-26T03:48:28;13.20;;;2.05;;
36691;SDS011;22678;52.052;4.242;2023-06-26T03:50:54;16.80;;;3.55;;
36691;SDS011;22678;52.052;4.242;2023-06-26T03:53:19;7.22;;;3.00;;
36691;SDS011;22678;52.052;4.242;2023-06-26T03:55:44;9.05;;;3.60;;
36691;SDS011;22678;52.052;4.242;2023-06-26T03:58:10;10.23;;;3.20;;
36691;SDS011;22678;52.052;4.242;2023-06-26T04:00:35;11.90;;;2.15;;
36691;SDS011;22678;52.052;4.242;2023-06-26T04:03:00;12.32;;;3.97;;
36691;SDS011;22678;52.052;4.242;2023-06-26T04:05:27;11.27;;;3.13;;
36691;SDS011;22678;52.052;4.242;2023-06-26T04:07:53;9.52;;;4.57;;
36691;SDS011;22678;52.052;4.242;2023-06-26T04:10:18;7.50;;;3.40;;
36691;SDS011;22678;52.052;4.242;2023-06-26T04:12:43;11.43;;;2.80;;
36691;SDS011;22678;52.052;4.242;2023-06-26T04:15:09;14.95;;;3.40;;
36691;SDS011;22678;52.052;4.242;2023-06-26T04:17:34;9.52;;;2.88;;
36691;SDS011;22678;52.052;4.242;2023-06-26T04:19:59;10.70;;;2.92;;
36691;SDS011;22678;52.052;4.242;2023-06-26T04:22:25;9.93;;;2.30;;
36691;SDS011;22678;52.052;4.242;2023-06-26T04:24:50;10.80;;;2.70;;
36691;SDS011;22678;52.052;4.242;2023-06-26T04:27:16;7.15;;;1.80;;
36691;SDS011;22678;52.052;4.242;2023-06-26T04:29:42;6.53;;;3.10;;
36691;SDS011;22678;52.052;4.242;2023-06-26T04:32:07;4.70;;;1.67;;
36691;SDS011;22678;52.052;4.242;2023-06-26T04:34:33;4.05;;;1.85;;
36691;SDS011;22678;52.052;4.242;2023-06-26T04:36:59;6.70;;;1.48;;
36691;SDS011;22678;52.052;4.242;2023-06-26T04:39:24;4.65;;;1.70;;
36691;SDS011;22678;52.052;4.242;2023-06-26T04:41:49;8.25;;;2.08;;
36691;SDS011;22678;52.052;4.242;2023-06-26T04:44:15;9.38;;;1.92;;
36691;SDS011;22678;52.052;4.242;2023-06-26T04:46:40;4.72;;;1.55;;
36691;SDS011;22678;52.052;4.242;2023-06-26T04:49:08;7.20;;;2.20;;
36691;SDS011;22678;52.052;4.242;2023-06-26T04:51:34;5.57;;;1.98;;
36691;SDS011;22678;52.052;4.242;2023-06-26T04:54:05;8.85;;;1.67;;
36691;SDS011;22678;52.052;4.242;2023-06-26T04:56:31;9.85;;;2.47;;
36691;SDS011;22678;52.052;4.242;2023-06-26T04:58:57;8.55;;;1.48;;
36691;SDS011;22678;52.052;4.242;2023-06-26T05:01:22;6.68;;;0.95;;
36691;SDS011;22678;52.052;4.242;2023-06-26T05:03:48;6.20;;;0.80;;
36691;SDS011;22678;52.052;4.242;2023-06-26T05:06:13;8.95;;;0.80;;
36691;SDS011;22678;52.052;4.242;2023-06-26T05:08:38;2.90;;;1.00;;
36691;SDS011;22678;52.052;4.242;2023-06-26T05:11:04;7.10;;;0.90;;
36691;SDS011;22678;52.052;4.242;2023-06-26T05:13:29;3.08;;;0.80;;
36691;SDS011;22678;52.052;4.242;2023-06-26T05:15:54;4.55;;;0.98;;
36691;SDS011;22678;52.052;4.242;2023-06-26T05:18:20;6.05;;;0.93;;
36691;SDS011;22678;52.052;4.242;2023-06-26T05:20:45;3.25;;;0.47;;
36691;SDS011;22678;52.052;4.242;2023-06-26T05:23:11;9.00;;;1.25;;
36691;SDS011;22678;52.052;4.242;2023-06-26T05:25:38;6.75;;;0.90;;
36691;SDS011;22678;52.052;4.242;2023-06-26T05:28:05;4.95;;;0.50;;
36691;SDS011;22678;52.052;4.242;2023-06-26T05:30:30;5.22;;;0.57;;
36691;SDS011;22678;52.052;4.242;2023-06-26T05:32:59;6.00;;;0.65;;
36691;SDS011;22678;52.052;4.242;2023-06-26T05:35:25;9.15;;;0.55;;
36691;SDS011;22678;52.052;4.242;2023-06-26T05:37:53;5.22;;;0.80;;
36691;SDS011;22678;52.052;4.242;2023-06-26T05:40:20;5.45;;;1.42;;
36691;SDS011;22678;52.052;4.242;2023-06-26T05:42:45;7.00;;;0.50;;
36691;SDS011;22678;52.052;4.242;2023-06-26T05:45:11;7.00;;;1.15;;
36691;SDS011;22678;52.052;4.242;2023-06-26T05:47:37;6.00;;;0.50;;
36691;SDS011;22678;52.052;4.242;2023-06-26T05:50:03;3.78;;;0.50;;
36691;SDS011;22678;52.052;4.242;2023-06-26T05:52:29;4.63;;;0.55;;
36691;SDS011;22678;52.052;4.242;2023-06-26T05:54:55;5.95;;;0.60;;
36691;SDS011;22678;52.052;4.242;2023-06-26T05:57:25;6.50;;;0.60;;
36691;SDS011;22678;52.052;4.242;2023-06-26T05:59:54;7.75;;;0.52;;
36691;SDS011;22678;52.052;4.242;2023-06-26T06:02:20;6.90;;;0.35;;
36691;SDS011;22678;52.052;4.242;2023-06-26T06:04:45;8.82;;;0.70;;
36691;SDS011;22678;52.052;4.242;2023-06-26T06:07:11;5.05;;;0.85;;
36691;SDS011;22678;52.052;4.242;2023-06-26T06:09:37;6.35;;;0.50;;
36691;SDS011;22678;52.052;4.242;2023-06-26T06:12:03;3.58;;;0.70;;
36691;SDS011;22678;52.052;4.242;2023-06-26T06:14:29;4.25;;;0.52;;
36691;SDS011;22678;52.052;4.242;2023-06-26T06:16:55;5.97;;;0.57;;
36691;SDS011;22678;52.052;4.242;2023-06-26T06:19:21;4.65;;;0.30;;
36691;SDS011;22678;52.052;4.242;2023-06-26T06:21:46;4.35;;;1.88;;
36691;SDS011;22678;52.052;4.242;2023-06-26T06:24:12;7.85;;;0.60;;
36691;SDS011;22678;52.052;4.242;2023-06-26T06:26:37;4.80;;;0.32;;
36691;SDS011;22678;52.052;4.242;2023-06-26T06:29:02;12.43;;;2.13;;
36691;SDS011;22678;52.052;4.242;2023-06-26T06:31:28;4.93;;;0.40;;
36691;SDS011;22678;52.052;4.242;2023-06-26T06:33:54;6.20;;;1.02;;
36691;SDS011;22678;52.052;4.242;2023-06-26T06:36:19;4.45;;;0.95;;
36691;SDS011;22678;52.052;4.242;2023-06-26T06:38:45;6.68;;;1.85;;
36691;SDS011;22678;52.052;4.242;2023-06-26T06:41:10;5.93;;;0.47;;
36691;SDS011;22678;52.052;4.242;2023-06-26T06:43:36;3.50;;;0.60;;
36691;SDS011;22678;52.052;4.242;2023-06-26T06:46:01;1.65;;;0.60;;
36691;SDS011;22678;52.052;4.242;2023-06-26T06:48:27;9.90;;;1.00;;
36691;SDS011;22678;52.052;4.242;2023-06-26T06:50:52;10.70;;;0.60;;
36691;SDS011;22678;52.052;4.242;2023-06-26T06:53:18;7.72;;;0.52;;
36691;SDS011;22678;52.052;4.242;2023-06-26T06:55:45;10.73;;;0.70;;
36691;SDS011;22678;52.052;4.242;2023-06-26T06:58:11;7.78;;;0.70;;
36691;SDS011;22678;52.052;4.242;2023-06-26T07:00:36;3.95;;;0.40;;
36691;SDS011;22678;52.052;4.242;2023-06-26T07:03:02;5.47;;;0.65;;
36691;SDS011;22678;52.052;4.242;2023-06-26T07:05:27;10.77;;;1.45;;
36691;SDS011;22678;52.052;4.242;2023-06-26T07:07:53;7.70;;;0.63;;
36691;SDS011;22678;52.052;4.242;2023-06-26T07:10:18;6.45;;;0.40;;
36691;SDS011;22678;52.052;4.242;2023-06-26T07:12:43;3.15;;;0.38;;
36691;SDS011;22678;52.052;4.242;2023-06-26T07:15:09;8.98;;;1.65;;
36691;SDS011;22678;52.052;4.242;2023-06-26T07:17:35;8.63;;;0.70;;
36691;SDS011;22678;52.052;4.242;2023-06-26T07:20:03;5.80;;;1.15;;
36691;SDS011;22678;52.052;4.242;2023-06-26T07:22:33;13.45;;;0.70;;
36691;SDS011;22678;52.052;4.242;2023-06-26T07:24:59;4.55;;;0.40;;
36691;SDS011;22678;52.052;4.242;2023-06-26T07:27:24;4.97;;;0.70;;
36691;SDS011;22678;52.052;4.242;2023-06-26T07:29:50;12.00;;;1.90;;
36691;SDS011;22678;52.052;4.242;2023-06-26T07:32:15;7.25;;;1.00;;
36691;SDS011;22678;52.052;4.242;2023-06-26T07:34:40;14.98;;;1.98;;
36691;SDS011;22678;52.052;4.242;2023-06-26T07:37:07;7.43;;;0.50;;
36691;SDS011;22678;52.052;4.242;2023-06-26T07:39:32;6.47;;;1.23;;
36691;SDS011;22678;52.052;4.242;2023-06-26T07:41:58;4.72;;;0.75;;
36691;SDS011;22678;52.052;4.242;2023-06-26T07:44:24;6.50;;;0.75;;
36691;SDS011;22678;52.052;4.242;2023-06-26T07:46:50;7.00;;;1.25;;
36691;SDS011;22678;52.052;4.242;2023-06-26T07:49:15;2.78;;;0.38;;
36691;SDS011;22678;52.052;4.242;2023-06-26T07:51:40;5.03;;;0.63;;
36691;SDS011;22678;52.052;4.242;2023-06-26T07:54:06;4.55;;;0.35;;
36691;SDS011;22678;52.052;4.242;2023-06-26T07:56:34;6.00;;;1.15;;
36691;SDS011;22678;52.052;4.242;2023-06-26T07:59:16;4.65;;;0.98;;
36691;SDS011;22678;52.052;4.242;2023-06-26T08:01:42;5.55;;;1.27;;
36691;SDS011;22678;52.052;4.242;2023-06-26T08:04:08;6.78;;;0.85;;
36691;SDS011;22678;52.052;4.242;2023-06-26T08:06:35;6.65;;;0.63;;
36691;SDS011;22678;52.052;4.242;2023-06-26T08:09:05;5.00;;;1.08;;
36691;SDS011;22678;52.052;4.242;2023-06-26T08:11:32;7.18;;;0.50;;
36691;SDS011;22678;52.052;4.242;2023-06-26T08:13:58;6.22;;;0.57;;
36691;SDS011;22678;52.052;4.242;2023-06-26T08:16:23;3.30;;;0.80;;
36691;SDS011;22678;52.052;4.242;2023-06-26T08:18:48;7.53;;;0.43;;
36691;SDS011;22678;52.052;4.242;2023-06-26T08:21:14;3.40;;;0.40;;
36691;SDS011;22678;52.052;4.242;2023-06-26T08:23:39;5.32;;;0.50;;
36691;SDS011;22678;52.052;4.242;2023-06-26T08:26:05;10.18;;;1.77;;
36691;SDS011;22678;52.052;4.242;2023-06-26T08:28:30;7.70;;;0.50;;
36691;SDS011;22678;52.052;4.242;2023-06-26T08:30:55;6.60;;;0.50;;
36691;SDS011;22678;52.052;4.242;2023-06-26T08:33:22;12.57;;;0.93;;
36691;SDS011;22678;52.052;4.242;2023-06-26T08:35:47;10.25;;;0.40;;
36691;SDS011;22678;52.052;4.242;2023-06-26T08:38:12;8.00;;;0.98;;
36691;SDS011;22678;52.052;4.242;2023-06-26T08:40:37;7.45;;;0.85;;
36691;SDS011;22678;52.052;4.242;2023-06-26T08:43:03;4.40;;;0.70;;
36691;SDS011;22678;52.052;4.242;2023-06-26T08:45:29;3.45;;;0.40;;
36691;SDS011;22678;52.052;4.242;2023-06-26T08:47:54;5.53;;;1.45;;
36691;SDS011;22678;52.052;4.242;2023-06-26T08:50:24;8.50;;;1.45;;
36691;SDS011;22678;52.052;4.242;2023-06-26T08:55:19;11.25;;;0.95;;
36691;SDS011;22678;52.052;4.242;2023-06-26T08:57:49;9.07;;;0.70;;
36691;SDS011;22678;52.052;4.242;2023-06-26T09:00:15;5.40;;;0.75;;
36691;SDS011;22678;52.052;4.242;2023-06-26T09:02:41;5.65;;;0.90;;
36691;SDS011;22678;52.052;4.242;2023-06-26T09:05:07;13.70;;;1.42;;
36691;SDS011;22678;52.052;4.242;2023-06-26T09:07:32;4.80;;;0.43;;
36691;SDS011;22678;52.052;4.242;2023-06-26T09:09:58;2.88;;;0.57;;
36691;SDS011;22678;52.052;4.242;2023-06-26T09:12:23;7.38;;;0.90;;
36691;SDS011;22678;52.052;4.242;2023-06-26T09:14:52;5.95;;;1.13;;
36691;SDS011;22678;52.052;4.242;2023-06-26T09:17:19;13.48;;;1.05;;
36691;SDS011;22678;52.052;4.242;2023-06-26T09:19:49;6.65;;;0.65;;
36691;SDS011;22678;52.052;4.242;2023-06-26T09:22:15;4.20;;;0.43;;
36691;SDS011;22678;52.052;4.242;2023-06-26T09:24:41;7.35;;;0.70;;
36691;SDS011;22678;52.052;4.242;2023-06-26T09:27:07;6.75;;;1.45;;
36691;SDS011;22678;52.052;4.242;2023-06-26T09:29:32;5.30;;;0.60;;
36691;SDS011;22678;52.052;4.242;2023-06-26T09:31:59;5.18;;;0.45;;
36691;SDS011;22678;52.052;4.242;2023-06-26T09:34:31;8.75;;;0.50;;
36691;SDS011;22678;52.052;4.242;2023-06-26T09:36:57;10.57;;;0.70;;
36691;SDS011;22678;52.052;4.242;2023-06-26T09:39:23;8.45;;;1.10;;
36691;SDS011;22678;52.052;4.242;2023-06-26T09:41:49;4.85;;;0.60;;
36691;SDS011;22678;52.052;4.242;2023-06-26T09:44:15;5.55;;;0.80;;
36691;SDS011;22678;52.052;4.242;2023-06-26T09:46:41;7.68;;;0.52;;
36691;SDS011;22678;52.052;4.242;2023-06-26T09:49:10;2.30;;;0.30;;
36691;SDS011;22678;52.052;4.242;2023-06-26T09:51:37;8.55;;;0.52;;
36691;SDS011;22678;52.052;4.242;2023-06-26T09:54:03;4.95;;;1.20;;
36691;SDS011;22678;52.052;4.242;2023-06-26T09:56:30;4.90;;;0.50;;
36691;SDS011;22678;52.052;4.242;2023-06-26T09:58:56;8.55;;;0.70;;
36691;SDS011;22678;52.052;4.242;2023-06-26T10:01:24;3.95;;;0.50;;
36691;SDS011;22678;52.052;4.242;2023-06-26T10:03:50;9.32;;;1.50;;
36691;SDS011;22678;52.052;4.242;2023-06-26T10:06:18;4.53;;;0.82;;
36691;SDS011;22678;52.052;4.242;2023-06-26T10:08:46;1.98;;;0.50;;
36691;SDS011;22678;52.052;4.242;2023-06-26T10:11:14;4.18;;;1.27;;
36691;SDS011;22678;52.052;4.242;2023-06-26T10:13:44;7.53;;;0.73;;
36691;SDS011;22678;52.052;4.242;2023-06-26T10:16:13;4.78;;;1.25;;
36691;SDS011;22678;52.052;4.242;2023-06-26T10:18:56;8.32;;;0.68;;
36691;SDS011;22678;52.052;4.242;2023-06-26T10:21:26;6.45;;;1.17;;
36691;SDS011;22678;52.052;4.242;2023-06-26T10:23:54;8.48;;;1.10;;
36691;SDS011;22678;52.052;4.242;2023-06-26T10:26:21;5.18;;;0.43;;
36691;SDS011;22678;52.052;4.242;2023-06-26T10:28:47;4.97;;;0.68;;
36691;SDS011;22678;52.052;4.242;2023-06-26T10:31:17;4.03;;;0.80;;
36691;SDS011;22678;52.052;4.242;2023-06-26T10:33:46;5.32;;;1.20;;
36691;SDS011;22678;52.052;4.242;2023-06-26T10:36:13;2.72;;;0.30;;
36691;SDS011;22678;52.052;4.242;2023-06-26T10:38:54;3.60;;;0.43;;
36691;SDS011;22678;52.052;4.242;2023-06-26T10:41:22;7.13;;;1.33;;
36691;SDS011;22678;52.052;4.242;2023-06-26T10:43:52;2.38;;;0.52;;
36691;SDS011;22678;52.052;4.242;2023-06-26T10:47:28;7.32;;;0.73;;
36691;SDS011;22678;52.052;4.242;2023-06-26T10:49:28;4.57;;;0.57;;
36691;SDS011;22678;52.052;4.242;2023-06-26T10:51:54;4.97;;;0.57;;
36691;SDS011;22678;52.052;4.242;2023-06-26T10:54:23;2.55;;;0.40;;
36691;SDS011;22678;52.052;4.242;2023-06-26T10:56:54;5.18;;;0.80;;
36691;SDS011;22678;52.052;4.242;2023-06-26T10:59:22;3.45;;;0.80;;
36691;SDS011;22678;52.052;4.242;2023-06-26T11:01:59;4.90;;;0.55;;
36691;SDS011;22678;52.052;4.242;2023-06-26T11:07:15;4.85;;;0.60;;
36691;SDS011;22678;52.052;4.242;2023-06-26T11:12:41;8.40;;;0.70;;
36691;SDS011;22678;52.052;4.242;2023-06-26T11:17:38;2.50;;;1.05;;
36691;SDS011;22678;52.052;4.242;2023-06-26T11:20:08;4.35;;;0.50;;
36691;SDS011;22678;52.052;4.242;2023-06-26T11:22:35;2.45;;;0.40;;
36691;SDS011;22678;52.052;4.242;2023-06-26T11:25:05;4.50;;;0.98;;
36691;SDS011;22678;52.052;4.242;2023-06-26T11:29:57;3.30;;;0.50;;
36691;SDS011;22678;52.052;4.242;2023-06-26T11:32:22;7.10;;;1.30;;
36691;SDS011;22678;52.052;4.242;2023-06-26T11:34:50;4.75;;;0.50;;
36691;SDS011;22678;52.052;4.242;2023-06-26T11:37:16;3.85;;;1.05;;
36691;SDS011;22678;52.052;4.242;2023-06-26T11:39:42;2.10;;;0.70;;
36691;SDS011;22678;52.052;4.242;2023-06-26T11:42:07;3.45;;;0.52;;
36691;SDS011;22678;52.052;4.242;2023-06-26T11:44:33;2.13;;;0.60;;
36691;SDS011;22678;52.052;4.242;2023-06-26T11:47:05;3.53;;;0.52;;
36691;SDS011;22678;52.052;4.242;2023-06-26T11:49:31;4.55;;;0.70;;
36691;SDS011;22678;52.052;4.242;2023-06-26T11:51:56;5.13;;;1.30;;
36691;SDS011;22678;52.052;4.242;2023-06-26T11:54:25;7.25;;;0.85;;
36691;SDS011;22678;52.052;4.242;2023-06-26T11:56:55;3.28;;;0.40;;
36691;SDS011;22678;52.052;4.242;2023-06-26T11:59:22;7.70;;;1.25;;
36691;SDS011;22678;52.052;4.242;2023-06-26T12:01:49;3.45;;;0.50;;
36691;SDS011;22678;52.052;4.242;2023-06-26T12:04:15;5.78;;;0.95;;
36691;SDS011;22678;52.052;4.242;2023-06-26T12:06:43;5.97;;;0.50;;
36691;SDS011;22678;52.052;4.242;2023-06-26T12:09:13;4.00;;;0.40;;
36691;SDS011;22678;52.052;4.242;2023-06-26T12:11:40;6.15;;;0.90;;
36691;SDS011;22678;52.052;4.242;2023-06-26T12:14:07;3.58;;;0.80;;
36691;SDS011;22678;52.052;4.242;2023-06-26T12:16:34;2.33;;;0.40;;
36691;SDS011;22678;52.052;4.242;2023-06-26T12:19:01;4.15;;;0.98;;
36691;SDS011;22678;52.052;4.242;2023-06-26T12:21:28;4.50;;;0.85;;
36691;SDS011;22678;52.052;4.242;2023-06-26T12:24:02;4.70;;;0.98;;
36691;SDS011;22678;52.052;4.242;2023-06-26T12:26:28;6.13;;;0.68;;
36691;SDS011;22678;52.052;4.242;2023-06-26T12:29:01;2.22;;;0.40;;
36691;SDS011;22678;52.052;4.242;2023-06-26T12:31:27;2.85;;;0.40;;
36691;SDS011;22678;52.052;4.242;2023-06-26T12:33:52;6.07;;;0.57;;
36691;SDS011;22678;52.052;4.242;2023-06-26T12:36:17;6.50;;;0.70;;
36691;SDS011;22678;52.052;4.242;2023-06-26T12:38:45;3.35;;;0.45;;
36691;SDS011;22678;52.052;4.242;2023-06-26T12:41:12;4.78;;;0.43;;
36691;SDS011;22678;52.052;4.242;2023-06-26T12:43:39;6.28;;;1.92;;
36691;SDS011;22678;52.052;4.242;2023-06-26T12:46:05;3.13;;;0.30;;
36691;SDS011;22678;52.052;4.242;2023-06-26T12:48:40;4.88;;;0.68;;
36691;SDS011;22678;52.052;4.242;2023-06-26T12:51:15;3.50;;;0.85;;
36691;SDS011;22678;52.052;4.242;2023-06-26T12:53:42;5.53;;;0.60;;
36691;SDS011;22678;52.052;4.242;2023-06-26T12:56:08;3.03;;;0.60;;
36691;SDS011;22678;52.052;4.242;2023-06-26T12:58:34;4.47;;;0.55;;
36691;SDS011;22678;52.052;4.242;2023-06-26T13:01:04;4.72;;;1.20;;
36691;SDS011;22678;52.052;4.242;2023-06-26T13:03:32;5.38;;;0.57;;
36691;SDS011;22678;52.052;4.242;2023-06-26T13:05:58;3.15;;;0.47;;
36691;SDS011;22678;52.052;4.242;2023-06-26T13:08:23;6.95;;;0.68;;
36691;SDS011;22678;52.052;4.242;2023-06-26T13:10:48;3.97;;;0.75;;
36691;SDS011;22678;52.052;4.242;2023-06-26T13:13:14;5.38;;;1.20;;
36691;SDS011;22678;52.052;4.242;2023-06-26T13:15:39;6.93;;;1.20;;
36691;SDS011;22678;52.052;4.242;2023-06-26T13:18:04;2.55;;;0.63;;
36691;SDS011;22678;52.052;4.242;2023-06-26T13:20:30;14.07;;;1.08;;
36691;SDS011;22678;52.052;4.242;2023-06-26T13:22:55;5.25;;;0.63;;
36691;SDS011;22678;52.052;4.242;2023-06-26T13:25:21;3.72;;;0.68;;
36691;SDS011;22678;52.052;4.242;2023-06-26T13:27:47;6.55;;;2.40;;
36691;SDS011;22678;52.052;4.242;2023-06-26T13:30:13;6.47;;;0.80;;
36691;SDS011;22678;52.052;4.242;2023-06-26T13:32:39;5.47;;;0.65;;
36691;SDS011;22678;52.052;4.242;2023-06-26T13:35:04;3.80;;;0.57;;
36691;SDS011;22678;52.052;4.242;2023-06-26T13:37:30;3.42;;;0.40;;
36691;SDS011;22678;52.052;4.242;2023-06-26T13:39:56;7.60;;;0.60;;
36691;SDS011;22678;52.052;4.242;2023-06-26T13:42:23;4.90;;;0.50;;
36691;SDS011;22678;52.052;4.242;2023-06-26T13:44:48;1.90;;;0.70;;
36691;SDS011;22678;52.052;4.242;2023-06-26T13:47:14;3.15;;;0.52;;
36691;SDS011;22678;52.052;4.242;2023-06-26T13:49:41;3.53;;;0.40;;
36691;SDS011;22678;52.052;4.242;2023-06-26T13:52:06;2.60;;;0.50;;
36691;SDS011;22678;52.052;4.242;2023-06-26T13:54:35;3.80;;;1.27;;
36691;SDS011;22678;52.052;4.242;2023-06-26T13:57:01;6.15;;;0.90;;
36691;SDS011;22678;52.052;4.242;2023-06-26T13:59:30;4.00;;;0.98;;
36691;SDS011;22678;52.052;4.242;2023-06-26T14:01:55;4.90;;;1.10;;
36691;SDS011;22678;52.052;4.242;2023-06-26T14:04:20;10.25;;;2.40;;
36691;SDS011;22678;52.052;4.242;2023-06-26T14:06:46;2.75;;;0.77;;
36691;SDS011;22678;52.052;4.242;2023-06-26T14:09:11;5.80;;;0.88;;
36691;SDS011;22678;52.052;4.242;2023-06-26T14:11:37;4.93;;;1.00;;
36691;SDS011;22678;52.052;4.242;2023-06-26T14:14:02;5.40;;;0.88;;
36691;SDS011;22678;52.052;4.242;2023-06-26T14:16:28;4.50;;;0.50;;
36691;SDS011;22678;52.052;4.242;2023-06-26T14:18:54;8.18;;;1.27;;
36691;SDS011;22678;52.052;4.242;2023-06-26T14:21:20;4.22;;;0.40;;
36691;SDS011;22678;52.052;4.242;2023-06-26T14:23:45;7.35;;;1.52;;
36691;SDS011;22678;52.052;4.242;2023-06-26T14:26:10;3.53;;;0.70;;
36691;SDS011;22678;52.052;4.242;2023-06-26T14:28:36;3.55;;;0.50;;
36691;SDS011;22678;52.052;4.242;2023-06-26T14:31:02;3.10;;;0.40;;
36691;SDS011;22678;52.052;4.242;2023-06-26T14:33:28;4.05;;;0.30;;
36691;SDS011;22678;52.052;4.242;2023-06-26T14:35:53;3.30;;;0.40;;
36691;SDS011;22678;52.052;4.242;2023-06-26T14:38:18;6.38;;;0.70;;
36691;SDS011;22678;52.052;4.242;2023-06-26T14:40:44;4.55;;;0.70;;
36691;SDS011;22678;52.052;4.242;2023-06-26T14:43:10;2.40;;;0.50;;
36691;SDS011;22678;52.052;4.242;2023-06-26T14:45:35;4.70;;;1.23;;
36691;SDS011;22678;52.052;4.242;2023-06-26T14:48:01;7.15;;;0.55;;
36691;SDS011;22678;52.052;4.242;2023-06-26T14:50:26;1.60;;;0.30;;
36691;SDS011;22678;52.052;4.242;2023-06-26T14:52:51;4.00;;;0.52;;
36691;SDS011;22678;52.052;4.242;2023-06-26T14:55:17;3.47;;;0.50;;